createdAt,value
2023-09-04T00:01:50.468Z,99399.09
2023-09-04T00:04:36.138Z,99460.41
2023-09-04T00:07:21.747Z,99413.00
2023-09-04T00:10:07.467Z,99481.22
2023-09-04T00:12:52.789Z,99468.00
2023-09-04T00:15:38.979Z,99551.75
2023-09-04T00:18:25.392Z,99434.06
2023-09-04T00:21:11.115Z,99575.00
2023-09-04T00:23:56.881Z,99442.81
2023-09-04T00:26:42.130Z,99478.63
2023-09-04T00:29:27.698Z,99457.41
2023-09-04T00:32:13.286Z,99506.78
2023-09-04T00:34:58.607Z,99421.88
2023-09-04T00:37:44.143Z,99524.09
2023-09-04T00:40:29.966Z,99477.34
2023-09-04T00:43:15.716Z,99561.63
2023-09-04T00:46:01.235Z,99408.31
2023-09-04T00:48:47.319Z,99453.09
2023-09-04T00:51:33.237Z,99514.53
2023-09-04T00:54:18.934Z,99506.94
2023-09-04T00:57:06.393Z,99523.72
2023-09-04T00:59:52.075Z,99504.34
2023-09-04T01:02:39.552Z,99578.69
2023-09-04T01:05:25.154Z,99556.78
2023-09-04T01:08:10.399Z,99492.19
2023-09-04T01:11:13.441Z,99569.69
2023-09-04T01:14:00.433Z,99418.53
2023-09-04T01:16:47.083Z,99519.38
2023-09-04T01:19:33.173Z,99453.69
2023-09-04T01:22:18.980Z,99545.00
2023-09-04T01:25:04.316Z,99537.69
2023-09-04T01:27:59.169Z,99589.56
2023-09-04T01:31:17.125Z,99581.91
2023-09-04T01:34:16.946Z,99549.03
2023-09-04T01:37:02.698Z,99529.56
2023-09-04T01:39:49.683Z,99471.97
2023-09-04T01:42:35.772Z,99563.88
2023-09-04T01:45:21.019Z,99499.91
2023-09-04T01:48:07.128Z,99506.66
2023-09-04T01:50:54.241Z,99489.50
2023-09-04T01:53:39.940Z,99510.78
2023-09-04T01:56:25.574Z,99423.66
2023-09-04T01:59:11.052Z,99513.31
2023-09-04T02:01:56.558Z,99411.94
2023-09-04T02:04:42.204Z,99504.38
2023-09-04T02:07:27.802Z,99471.84
2023-09-04T02:10:13.208Z,99557.69
2023-09-04T02:12:59.648Z,99549.66
2023-09-04T02:15:46.732Z,99464.72
2023-09-04T02:18:32.833Z,99382.91
2023-09-04T02:21:18.471Z,99552.72
2023-09-04T02:24:04.010Z,99531.75
2023-09-04T02:26:49.484Z,99510.09
2023-09-04T02:29:35.052Z,99508.91
2023-09-04T02:32:20.319Z,99426.16
2023-09-04T02:35:06.583Z,99412.78
2023-09-04T02:37:52.006Z,99476.75
2023-09-04T02:40:37.289Z,99492.78
2023-09-04T02:43:22.606Z,99441.94
2023-09-04T02:46:08.465Z,99440.28
2023-09-04T02:48:53.893Z,99419.31
2023-09-04T02:51:39.912Z,99411.59
2023-09-04T02:54:25.265Z,99356.19
2023-09-04T02:57:11.076Z,99420.03
2023-09-04T02:59:56.417Z,99344.91
2023-09-04T03:02:43.004Z,99415.41
2023-09-04T03:05:28.993Z,99468.41
2023-09-04T03:08:16.456Z,99362.09
2023-09-04T03:11:02.687Z,99389.50
2023-09-04T03:13:48.201Z,99404.38
2023-09-04T03:16:33.864Z,99481.34
2023-09-04T03:19:19.406Z,99403.25
2023-09-04T03:22:05.131Z,99386.03
2023-09-04T03:24:50.695Z,99515.94
2023-09-04T03:27:36.249Z,99434.84
2023-09-04T03:30:22.427Z,99433.41
2023-09-04T03:33:08.128Z,99452.06
2023-09-04T03:35:53.630Z,99472.38
2023-09-04T03:38:39.805Z,99518.59
2023-09-04T03:41:25.454Z,99465.19
2023-09-04T03:44:10.627Z,99525.91
2023-09-04T03:46:55.859Z,99462.34
2023-09-04T03:49:41.438Z,99433.81
2023-09-04T03:52:26.912Z,99414.31
2023-09-04T03:55:13.030Z,99424.97
2023-09-04T03:57:58.567Z,99396.94
2023-09-04T04:00:44.386Z,99423.16
2023-09-04T04:03:30.758Z,99434.75
2023-09-04T04:06:16.450Z,99495.50
2023-09-04T04:09:02.363Z,99459.38
2023-09-04T04:11:48.074Z,99505.78
2023-09-04T04:14:33.613Z,99535.81
2023-09-04T04:17:18.915Z,99402.91
2023-09-04T04:20:05.272Z,99394.84
2023-09-04T04:22:50.922Z,99438.41
2023-09-04T04:25:36.815Z,99486.66
2023-09-04T04:28:23.918Z,99533.88
2023-09-04T04:31:10.132Z,99439.25
2023-09-04T04:33:56.652Z,99422.41
2023-09-04T04:36:42.376Z,99447.66
2023-09-04T04:39:28.119Z,99458.59
2023-09-04T04:42:15.570Z,99512.56
2023-09-04T04:45:00.876Z,99379.16
2023-09-04T04:47:46.193Z,99481.50
2023-09-04T04:50:31.881Z,99341.69
2023-09-04T04:53:17.220Z,99457.91
2023-09-04T04:56:04.930Z,99435.31
2023-09-04T04:58:50.231Z,99394.31
2023-09-04T05:01:36.149Z,99396.81
2023-09-04T05:04:21.706Z,99443.38
2023-09-04T05:07:07.167Z,99432.94
2023-09-04T05:09:54.093Z,99454.63
2023-09-04T05:12:40.042Z,99434.78
2023-09-04T05:15:25.234Z,99425.88
2023-09-04T05:18:11.696Z,99380.00
2023-09-04T05:20:59.219Z,99429.34
2023-09-04T05:23:44.474Z,99316.78
2023-09-04T05:26:30.126Z,99540.00
2023-09-04T05:29:15.394Z,99460.19
2023-09-04T05:32:00.751Z,99436.44
2023-09-04T05:34:46.192Z,99408.66
2023-09-04T05:37:32.472Z,99423.03
2023-09-04T05:40:17.920Z,99474.69
2023-09-04T05:43:03.941Z,99372.31
2023-09-04T05:45:49.962Z,99515.94
2023-09-04T05:48:35.404Z,99549.59
2023-09-04T05:51:20.630Z,99510.97
2023-09-04T05:54:06.146Z,99435.22
2023-09-04T05:56:51.783Z,99403.31
2023-09-04T05:59:37.268Z,99475.38
2023-09-04T06:02:22.549Z,99518.41
2023-09-04T06:05:08.295Z,99518.16
2023-09-04T06:07:54.041Z,99501.88
2023-09-04T06:10:39.800Z,99461.47
2023-09-04T06:13:25.347Z,99486.06
2023-09-04T06:16:10.886Z,99489.53
2023-09-04T06:18:56.599Z,99506.31
2023-09-04T06:21:42.146Z,99522.09
2023-09-04T06:24:27.729Z,99556.31
2023-09-04T06:27:13.297Z,99417.44
2023-09-04T06:29:58.515Z,99504.34
2023-09-04T06:32:44.289Z,99526.19
2023-09-04T06:35:30.283Z,99454.09
2023-09-04T06:38:15.711Z,99494.44
2023-09-04T06:41:01.288Z,99503.78
2023-09-04T06:43:46.860Z,99487.19
2023-09-04T06:46:33.263Z,99444.69
2023-09-04T06:49:18.722Z,99501.00
2023-09-04T06:52:04.397Z,99522.94
2023-09-04T06:54:49.740Z,99567.88
2023-09-04T06:57:34.982Z,99465.19
2023-09-04T07:00:21.685Z,99540.22
2023-09-04T07:03:07.398Z,99572.69
2023-09-04T07:05:53.141Z,99454.22
2023-09-04T07:08:38.487Z,99463.25
2023-09-04T07:11:24.444Z,99574.19
2023-09-04T07:14:09.729Z,99440.06
2023-09-04T07:17:07.572Z,99503.16
2023-09-04T07:19:53.977Z,99409.47
2023-09-04T07:22:39.928Z,99452.09
2023-09-04T07:25:25.306Z,99462.38
2023-09-04T07:28:10.679Z,99521.97
2023-09-04T07:31:16.645Z,99558.28
2023-09-04T07:34:02.887Z,99410.41
2023-09-04T07:36:48.421Z,99480.50
2023-09-04T07:39:33.903Z,99422.91
2023-09-04T07:42:19.625Z,99457.44
2023-09-04T07:45:05.422Z,99460.97
2023-09-04T07:47:51.010Z,99503.47
2023-09-04T07:50:36.297Z,99560.50
2023-09-04T07:53:22.844Z,99452.13
2023-09-04T07:56:10.965Z,99446.03
2023-09-04T07:58:56.076Z,99444.66
2023-09-04T08:01:41.448Z,99553.97
2023-09-04T08:04:27.124Z,99540.03
2023-09-04T08:07:12.505Z,99532.09
2023-09-04T08:09:57.930Z,99549.38
2023-09-04T08:12:43.787Z,99528.38
2023-09-04T08:15:28.985Z,99543.50
2023-09-04T08:18:14.515Z,99474.53
2023-09-04T08:20:59.836Z,99459.56
2023-09-04T08:23:45.786Z,99556.19
2023-09-04T08:26:31.306Z,99474.28
2023-09-04T08:29:16.714Z,99543.94
2023-09-04T08:32:02.290Z,99355.81
2023-09-04T08:34:47.883Z,99465.44
2023-09-04T08:37:33.221Z,99451.94
2023-09-04T08:40:18.567Z,99387.41
2023-09-04T08:43:05.309Z,99473.72
2023-09-04T08:45:51.306Z,99405.56
2023-09-04T08:48:40.844Z,99415.84
2023-09-04T08:51:27.584Z,99369.66
2023-09-04T08:54:13.364Z,99414.97
2023-09-04T08:56:59.166Z,99395.19
2023-09-04T08:59:44.589Z,99437.41
2023-09-04T09:02:31.004Z,99512.19
2023-09-04T09:05:18.274Z,99458.28
2023-09-04T09:08:05.466Z,99497.63
2023-09-04T09:10:52.693Z,99382.97
2023-09-04T09:13:38.092Z,99516.56
2023-09-04T09:16:23.466Z,99435.78
2023-09-04T09:19:10.224Z,99410.78
2023-09-04T09:22:09.340Z,99400.47
2023-09-04T09:25:00.779Z,99435.22
2023-09-04T09:27:46.314Z,99414.19
2023-09-04T09:30:37.985Z,99510.06
2023-09-04T09:33:23.463Z,99437.41
2023-09-04T09:36:17.957Z,99445.16
2023-09-04T09:39:05.069Z,99418.78
2023-09-04T09:41:50.410Z,99392.25
2023-09-04T09:44:35.988Z,99395.75
2023-09-04T09:47:22.382Z,99475.25
2023-09-04T09:50:09.021Z,99401.34
2023-09-04T09:53:01.608Z,99417.16
2023-09-04T09:55:49.676Z,99471.91
2023-09-04T09:58:35.081Z,99434.94
2023-09-04T10:01:20.407Z,99364.88
2023-09-04T10:04:07.378Z,99439.59
2023-09-04T10:06:54.426Z,99454.44
2023-09-04T10:09:45.994Z,99372.97
2023-09-04T10:12:42.046Z,99462.25
2023-09-04T10:15:28.711Z,99397.09
2023-09-04T10:18:47.545Z,99434.09
2023-09-04T10:21:41.469Z,99413.19
2023-09-04T10:24:55.111Z,99467.06
2023-09-04T10:27:45.525Z,99326.78
2023-09-04T10:30:37.105Z,99474.31
2023-09-04T10:33:22.651Z,99453.28
2023-09-04T10:36:09.907Z,99452.47
2023-09-04T10:38:55.963Z,99317.06
2023-09-04T10:41:42.047Z,99428.88
2023-09-04T10:44:45.775Z,99347.78
2023-09-04T10:47:44.857Z,99412.06
2023-09-04T10:50:34.952Z,99324.28
2023-09-04T10:53:30.826Z,99360.97
2023-09-04T10:59:27.069Z,99357.78
2023-09-04T11:02:26.476Z,99322.06
2023-09-04T11:05:11.909Z,99332.63
2023-09-04T11:08:26.628Z,99351.94
2023-09-04T11:11:12.225Z,99382.59
2023-09-04T11:14:03.936Z,99407.00
2023-09-04T11:16:50.776Z,99268.34
2023-09-04T11:19:36.234Z,99310.47
2023-09-04T11:22:23.896Z,99347.53
2023-09-04T11:25:09.085Z,99311.25
2023-09-04T11:27:54.381Z,99316.16
2023-09-04T11:30:40.495Z,99414.72
2023-09-04T11:33:30.266Z,99308.41
2023-09-04T11:36:16.390Z,99294.06
2023-09-04T11:39:06.027Z,99310.50
2023-09-04T11:41:51.230Z,99276.63
2023-09-04T11:44:36.740Z,99278.16
2023-09-04T11:47:23.454Z,99323.00
2023-09-04T11:50:15.298Z,99330.13
2023-09-04T11:53:01.166Z,99389.56
2023-09-04T11:55:52.862Z,99294.22
2023-09-04T11:58:40.571Z,99277.28
2023-09-04T12:01:27.081Z,99279.69
2023-09-04T12:04:12.414Z,99261.53
2023-09-04T12:06:57.726Z,99274.28
2023-09-04T12:09:43.377Z,99264.16
2023-09-04T12:12:28.788Z,99348.19
2023-09-04T12:15:26.799Z,99304.13
2023-09-04T12:18:12.189Z,99324.63
2023-09-04T12:20:57.980Z,99307.41
2023-09-04T12:23:47.629Z,99383.09
2023-09-04T12:26:33.032Z,99277.34
2023-09-04T12:29:21.697Z,99177.53
2023-09-04T12:32:07.066Z,99286.78
2023-09-04T12:35:00.652Z,99367.47
2023-09-04T12:37:46.572Z,99046.59
2023-09-04T12:40:32.176Z,99246.50
2023-09-04T12:43:17.475Z,99318.47
2023-09-04T12:46:02.891Z,99346.06
2023-09-04T12:48:49.831Z,99294.38
2023-09-04T12:51:35.279Z,99277.25
2023-09-04T12:54:20.704Z,99227.25
2023-09-04T12:57:06.348Z,99235.31
2023-09-04T12:59:52.126Z,99266.63
2023-09-04T13:02:38.029Z,99316.03
2023-09-04T13:05:25.114Z,99328.25
2023-09-04T13:08:10.531Z,99080.06
2023-09-04T13:10:56.048Z,99199.03
2023-09-04T13:13:42.971Z,99282.19
2023-09-04T13:16:28.347Z,99268.88
2023-09-04T13:19:13.726Z,99278.47
2023-09-04T13:21:59.239Z,99269.53
2023-09-04T13:24:44.657Z,99233.25
2023-09-04T13:27:30.123Z,99312.56
2023-09-04T13:30:15.636Z,99229.44
2023-09-04T13:33:01.193Z,99280.72
2023-09-04T13:35:46.960Z,99271.22
2023-09-04T13:38:32.430Z,99184.41
2023-09-04T13:41:20.615Z,99214.50
2023-09-04T13:44:05.925Z,99228.41
2023-09-04T13:46:51.428Z,99241.69
2023-09-04T13:49:37.333Z,99232.84
2023-09-04T13:52:24.940Z,99271.69
2023-09-04T13:55:10.678Z,99257.66
2023-09-04T13:57:56.177Z,99189.94
2023-09-04T14:00:42.164Z,99136.56
2023-09-04T14:03:28.044Z,99191.28
2023-09-04T14:06:13.760Z,99233.81
2023-09-04T14:08:59.587Z,99210.06
2023-09-04T14:11:44.862Z,99203.56
2023-09-04T14:14:31.092Z,99200.13
2023-09-04T14:17:16.779Z,98766.66
2023-09-04T14:20:02.291Z,99190.97
2023-09-04T14:22:47.829Z,99195.97
2023-09-04T14:25:33.599Z,99215.59
2023-09-04T14:28:18.809Z,99235.69
2023-09-04T14:31:04.638Z,99194.97
2023-09-04T14:33:50.014Z,99222.72
2023-09-04T14:36:35.948Z,99217.72
2023-09-04T14:39:21.613Z,99213.75
2023-09-04T14:42:07.719Z,99204.47
2023-09-04T14:44:53.290Z,99199.88
2023-09-04T14:47:38.934Z,99222.06
2023-09-04T14:50:27.566Z,99206.13
2023-09-04T14:53:12.819Z,99151.56
2023-09-04T14:55:58.959Z,99241.69
2023-09-04T14:58:44.677Z,99088.28
2023-09-04T15:01:30.088Z,99200.13
2023-09-04T15:04:15.387Z,99179.06
2023-09-04T15:07:00.734Z,99226.91
2023-09-04T15:09:46.345Z,99234.88
2023-09-04T15:12:32.039Z,99199.34
2023-09-04T15:15:17.547Z,99120.34
2023-09-04T15:18:03.134Z,99080.81
2023-09-04T15:20:51.594Z,99126.13
2023-09-04T15:23:37.244Z,99201.25
2023-09-04T15:26:22.753Z,99206.00
2023-09-04T15:29:07.998Z,99201.38
2023-09-04T15:31:53.909Z,99188.03
2023-09-04T15:34:39.597Z,99155.50
2023-09-04T15:37:24.940Z,99190.97
2023-09-04T15:40:10.297Z,99166.38
2023-09-04T15:42:56.076Z,99178.06
2023-09-04T15:45:41.541Z,99207.75
2023-09-04T15:48:27.250Z,99172.00
2023-09-04T15:51:13.075Z,99184.19
2023-09-04T15:53:58.809Z,99169.00
2023-09-04T15:56:44.442Z,99161.75
2023-09-04T15:59:31.883Z,99117.78
2023-09-04T16:02:17.568Z,99170.75
2023-09-04T16:05:03.318Z,99175.31
2023-09-04T16:07:48.685Z,99179.16
2023-09-04T16:10:34.090Z,99132.84
2023-09-04T16:13:20.958Z,99199.50
2023-09-04T16:16:06.320Z,99169.91
2023-09-04T16:18:51.758Z,99098.69
2023-09-04T16:21:37.172Z,99165.97
2023-09-04T16:24:22.798Z,99166.22
2023-09-04T16:27:08.022Z,99167.25
2023-09-04T16:29:53.936Z,99105.56
2023-09-04T16:32:40.058Z,99175.84
2023-09-04T16:35:25.636Z,99187.31
2023-09-04T16:38:11.355Z,99182.13
2023-09-04T16:40:56.766Z,99169.59
2023-09-04T16:43:42.513Z,99154.94
2023-09-04T16:46:28.039Z,99191.97
2023-09-04T16:49:13.366Z,99147.84
2023-09-04T16:52:00.735Z,99147.34
2023-09-04T16:54:47.876Z,99179.00
2023-09-04T16:57:33.280Z,99158.75
2023-09-04T17:00:19.070Z,99118.25
2023-09-04T17:03:04.260Z,99155.41
2023-09-04T17:05:50.007Z,99109.09
2023-09-04T17:08:35.398Z,99174.88
2023-09-04T17:11:20.951Z,99177.88
2023-09-04T17:14:07.343Z,99137.88
2023-09-04T17:16:52.881Z,99159.50
2023-09-04T17:19:38.412Z,99136.78
2023-09-04T17:22:24.064Z,99152.75
2023-09-04T17:25:09.530Z,99173.50
2023-09-04T17:27:55.024Z,99119.50
2023-09-04T17:30:42.700Z,99015.78
2023-09-04T17:33:28.018Z,98954.50
2023-09-04T17:36:13.406Z,98989.22
2023-09-04T17:38:58.732Z,99086.97
2023-09-04T17:41:44.328Z,99045.63
2023-09-04T17:44:29.883Z,99140.31
2023-09-04T17:47:15.384Z,99159.13
2023-09-04T17:50:01.057Z,99099.81
2023-09-04T17:52:46.272Z,99129.59
2023-09-04T17:55:32.206Z,99144.91
2023-09-04T17:58:17.862Z,99148.09
2023-09-04T18:01:03.381Z,99172.56
2023-09-04T18:03:48.710Z,99105.44
2023-09-04T18:06:35.319Z,99110.50
2023-09-04T18:09:21.172Z,99083.72
2023-09-04T18:12:07.146Z,99127.75
2023-09-04T18:14:52.428Z,99115.19
2023-09-04T18:17:38.006Z,99150.16
2023-09-04T18:20:24.707Z,99084.41
2023-09-04T18:27:11.836Z,98410.53
2023-09-04T18:30:01.997Z,98580.34
2023-09-04T18:32:47.847Z,98983.78
2023-09-04T18:35:33.854Z,99129.56
2023-09-04T18:38:18.996Z,99124.81
2023-09-04T18:41:08.896Z,99049.84
2023-09-04T18:43:54.598Z,99108.84
2023-09-04T18:46:40.221Z,99109.66
2023-09-04T18:49:25.379Z,99113.53
2023-09-04T18:52:10.820Z,99100.78
2023-09-04T18:54:56.419Z,99157.56
2023-09-04T18:57:41.889Z,99158.03
2023-09-04T19:00:27.170Z,99056.34
2023-09-04T19:03:12.810Z,99108.50
2023-09-04T19:05:58.357Z,98945.78
2023-09-04T19:08:43.978Z,99133.06
2023-09-04T19:11:29.442Z,99145.63
2023-09-04T19:14:14.888Z,99035.63
2023-09-04T19:17:01.046Z,99182.72
2023-09-04T19:19:46.672Z,99141.34
2023-09-04T19:22:31.894Z,99091.28
2023-09-04T19:25:17.645Z,99037.00
2023-09-04T19:28:10.723Z,99166.03
2023-09-04T19:30:56.463Z,99167.53
2023-09-04T19:33:41.954Z,99193.56
2023-09-04T19:36:27.618Z,99192.63
2023-09-04T19:39:12.983Z,99097.16
2023-09-04T19:41:58.473Z,99099.47
2023-09-04T19:44:43.725Z,99104.47
2023-09-04T19:47:29.555Z,99156.44
2023-09-04T19:50:14.871Z,99195.97
2023-09-04T19:53:00.246Z,99101.94
2023-09-04T19:55:45.899Z,99096.81
2023-09-04T19:58:31.386Z,99156.41
2023-09-04T20:01:17.118Z,99107.28
2023-09-04T20:04:02.506Z,99157.59
2023-09-04T20:06:48.206Z,99137.72
2023-09-04T20:09:34.759Z,99196.47
2023-09-04T20:12:20.197Z,99067.22
2023-09-04T20:15:06.216Z,99060.56
2023-09-04T20:17:51.933Z,99171.78
2023-09-04T20:20:37.274Z,99014.69
2023-09-04T20:23:23.150Z,99157.66
2023-09-04T20:26:09.340Z,99133.16
2023-09-04T20:28:58.182Z,99170.72
2023-09-04T20:31:44.295Z,99146.97
2023-09-04T20:34:29.723Z,99037.69
2023-09-04T20:37:15.494Z,99045.84
2023-09-04T20:40:01.107Z,99011.69
2023-09-04T20:42:46.742Z,99206.63
2023-09-04T20:45:31.915Z,99202.28
2023-09-04T20:48:17.175Z,99145.50
2023-09-04T20:51:03.268Z,99089.16
2023-09-04T20:53:48.561Z,99095.50
2023-09-04T20:56:34.114Z,99197.19
2023-09-04T20:59:19.302Z,99014.78
2023-09-04T21:02:04.960Z,99074.50
2023-09-04T21:04:50.343Z,99074.69
2023-09-04T21:07:35.748Z,99052.38
2023-09-04T21:10:21.436Z,99195.88
2023-09-04T21:13:06.684Z,99095.09
2023-09-04T21:15:52.966Z,99057.63
2023-09-04T21:18:38.668Z,99209.34
2023-09-04T21:21:24.047Z,99136.09
2023-09-04T21:24:09.582Z,99117.72
2023-09-04T21:26:55.306Z,99136.53
2023-09-04T21:29:40.864Z,99065.72
2023-09-04T21:32:26.543Z,99146.00
2023-09-04T21:35:11.970Z,99124.44
2023-09-04T21:37:57.601Z,99064.50
2023-09-04T21:40:42.972Z,99140.31
2023-09-04T21:43:28.627Z,99204.25
2023-09-04T21:46:14.198Z,99065.88
2023-09-04T21:49:02.078Z,99170.66
2023-09-04T21:51:47.438Z,99066.91
2023-09-04T21:54:32.802Z,99091.09
2023-09-04T21:57:18.155Z,99117.28
2023-09-04T22:00:04.087Z,99116.03
2023-09-04T22:02:50.925Z,99144.28
2023-09-04T22:05:36.366Z,99100.53
2023-09-04T22:08:21.281Z,99190.38
2023-09-04T22:11:06.764Z,99074.94
2023-09-04T22:13:52.217Z,99063.09
2023-09-04T22:16:40.379Z,99081.75
2023-09-04T22:19:31.581Z,99031.00
2023-09-04T22:22:16.827Z,99134.56
2023-09-04T22:25:02.432Z,99044.69
2023-09-04T22:27:48.146Z,99120.63
2023-09-04T22:30:33.470Z,99036.53
2023-09-04T22:33:19.034Z,99119.66
2023-09-04T22:36:04.130Z,99140.94
2023-09-04T22:38:49.984Z,99026.28
2023-09-04T22:41:34.892Z,98999.69
2023-09-04T22:44:20.507Z,99007.88
2023-09-04T22:47:06.069Z,99051.28
2023-09-04T22:49:51.328Z,99046.38
2023-09-04T22:52:36.355Z,99045.16
2023-09-04T22:55:21.682Z,99027.13
2023-09-04T22:58:06.789Z,99127.44
2023-09-04T23:00:52.325Z,99132.19
2023-09-04T23:03:37.727Z,99142.66
2023-09-04T23:06:23.520Z,99157.22
2023-09-04T23:09:08.623Z,99038.38
2023-09-04T23:11:54.253Z,99162.53
2023-09-04T23:14:39.705Z,99102.50
2023-09-04T23:17:24.954Z,99149.63
2023-09-04T23:20:10.668Z,99120.97
2023-09-04T23:22:55.936Z,99148.59
2023-09-04T23:25:41.330Z,99131.81
2023-09-04T23:28:26.974Z,99149.22
2023-09-04T23:31:12.269Z,99137.75
2023-09-04T23:33:57.836Z,99151.88
2023-09-04T23:36:43.932Z,99143.47
2023-09-04T23:39:32.473Z,99138.56
2023-09-04T23:42:17.816Z,99103.94
2023-09-04T23:45:03.214Z,99130.56
2023-09-04T23:47:49.747Z,99152.06
2023-09-04T23:50:34.969Z,99097.50
2023-09-04T23:53:20.438Z,99120.88
2023-09-04T23:56:07.350Z,99111.25
2023-09-04T23:58:52.826Z,99123.59
